sensor_id;sensor_type;location;lat;lon;timestamp;temperature;humidity
74178;DHT22;62540;48.456;-4.456;2023-01-10T00:02:17;11.14;68.38
74178;DHT22;62540;48.456;-4.456;2023-01-10T00:04:42;11.15;68.71
74178;DHT22;62540;48.456;-4.456;2023-01-10T00:07:08;11.10;68.95
74178;DHT22;62540;48.456;-4.456;2023-01-10T00:09:33;11.11;69.33
74178;DHT22;62540;48.456;-4.456;2023-01-10T00:11:58;11.10;69.50
74178;DHT22;62540;48.456;-4.456;2023-01-10T00:14:42;11.08;70.09
74178;DHT22;62540;48.456;-4.456;2023-01-10T00:17:08;11.07;70.23
74178;DHT22;62540;48.456;-4.456;2023-01-10T00:19:33;11.03;70.84
74178;DHT22;62540;48.456;-4.456;2023-01-10T00:21:58;10.97;71.24
74178;DHT22;62540;48.456;-4.456;2023-01-10T00:24:31;10.94;71.88
74178;DHT22;62540;48.456;-4.456;2023-01-10T00:26:56;10.90;72.89
74178;DHT22;62540;48.456;-4.456;2023-01-10T00:29:25;10.93;73.28
74178;DHT22;62540;48.456;-4.456;2023-01-10T00:31:52;10.91;73.49
74178;DHT22;62540;48.456;-4.456;2023-01-10T00:34:18;10.90;73.45
74178;DHT22;62540;48.456;-4.456;2023-01-10T00:36:44;10.94;74.02
74178;DHT22;62540;48.456;-4.456;2023-01-10T00:39:11;10.94;74.50
74178;DHT22;62540;48.456;-4.456;2023-01-10T00:41:37;10.97;74.67
74178;DHT22;62540;48.456;-4.456;2023-01-10T00:44:22;10.95;75.10
74178;DHT22;62540;48.456;-4.456;2023-01-10T00:46:47;10.97;74.89
74178;DHT22;62540;48.456;-4.456;2023-01-10T00:49:12;10.94;76.08
74178;DHT22;62540;48.456;-4.456;2023-01-10T00:51:40;10.95;75.49
74178;DHT22;62540;48.456;-4.456;2023-01-10T00:54:08;10.91;76.21
74178;DHT22;62540;48.456;-4.456;2023-01-10T00:56:33;10.95;75.73
74178;DHT22;62540;48.456;-4.456;2023-01-10T00:58:58;10.97;76.28
74178;DHT22;62540;48.456;-4.456;2023-01-10T01:01:24;10.97;76.20
74178;DHT22;62540;48.456;-4.456;2023-01-10T01:03:49;10.97;76.22
74178;DHT22;62540;48.456;-4.456;2023-01-10T01:06:15;10.98;76.02
74178;DHT22;62540;48.456;-4.456;2023-01-10T01:08:40;11.01;76.13
74178;DHT22;62540;48.456;-4.456;2023-01-10T01:11:06;11.00;76.54
74178;DHT22;62540;48.456;-4.456;2023-01-10T01:13:31;11.00;76.91
74178;DHT22;62540;48.456;-4.456;2023-01-10T01:15:59;10.95;77.31
74178;DHT22;62540;48.456;-4.456;2023-01-10T01:18:25;10.90;77.97
74178;DHT22;62540;48.456;-4.456;2023-01-10T01:20:52;10.91;77.28
74178;DHT22;62540;48.456;-4.456;2023-01-10T01:23:18;10.88;77.84
74178;DHT22;62540;48.456;-4.456;2023-01-10T01:25:44;10.90;77.87
74178;DHT22;62540;48.456;-4.456;2023-01-10T01:28:12;10.84;78.81
74178;DHT22;62540;48.456;-4.456;2023-01-10T01:30:37;10.81;78.95
74178;DHT22;62540;48.456;-4.456;2023-01-10T01:33:03;10.87;78.70
74178;DHT22;62540;48.456;-4.456;2023-01-10T01:35:29;10.85;79.24
74178;DHT22;62540;48.456;-4.456;2023-01-10T01:37:54;10.85;79.24
74178;DHT22;62540;48.456;-4.456;2023-01-10T01:40:21;10.84;79.59
74178;DHT22;62540;48.456;-4.456;2023-01-10T01:42:47;10.78;79.72
74178;DHT22;62540;48.456;-4.456;2023-01-10T01:53:09;10.71;81.01
74178;DHT22;62540;48.456;-4.456;2023-01-10T01:55:37;10.67;81.27
74178;DHT22;62540;48.456;-4.456;2023-01-10T01:58:07;10.70;81.68
74178;DHT22;62540;48.456;-4.456;2023-01-10T02:00:34;10.70;81.50
74178;DHT22;62540;48.456;-4.456;2023-01-10T02:03:01;10.66;82.10
74178;DHT22;62540;48.456;-4.456;2023-01-10T02:05:27;10.63;82.01
74178;DHT22;62540;48.456;-4.456;2023-01-10T02:07:55;10.64;81.91
74178;DHT22;62540;48.456;-4.456;2023-01-10T02:10:41;10.66;82.33
74178;DHT22;62540;48.456;-4.456;2023-01-10T02:13:11;10.66;82.46
74178;DHT22;62540;48.456;-4.456;2023-01-10T02:15:39;10.64;82.96
74178;DHT22;62540;48.456;-4.456;2023-01-10T02:18:04;10.73;81.99
74178;DHT22;62540;48.456;-4.456;2023-01-10T02:20:49;10.76;83.10
74178;DHT22;62540;48.456;-4.456;2023-01-10T02:37:15;10.98;83.60
74178;DHT22;62540;48.456;-4.456;2023-01-10T02:42:35;11.04;84.11
74178;DHT22;62540;48.456;-4.456;2023-01-10T02:45:16;11.08;83.83
74178;DHT22;62540;48.456;-4.456;2023-01-10T02:47:43;11.07;84.21
74178;DHT22;62540;48.456;-4.456;2023-01-10T02:50:29;11.15;83.72
74178;DHT22;62540;48.456;-4.456;2023-01-10T02:53:06;11.16;83.71
74178;DHT22;62540;48.456;-4.456;2023-01-10T03:06:51;11.22;83.90
74178;DHT22;62540;48.456;-4.456;2023-01-10T03:09:34;11.25;84.23
74178;DHT22;62540;48.456;-4.456;2023-01-10T03:14:55;11.34;84.28
74178;DHT22;62540;48.456;-4.456;2023-01-10T03:17:22;11.46;83.48
74178;DHT22;62540;48.456;-4.456;2023-01-10T03:19:53;11.47;84.07
74178;DHT22;62540;48.456;-4.456;2023-01-10T03:22:22;11.55;83.66
74178;DHT22;62540;48.456;-4.456;2023-01-10T03:24:49;11.55;84.15
74178;DHT22;62540;48.456;-4.456;2023-01-10T03:27:26;11.61;84.30
74178;DHT22;62540;48.456;-4.456;2023-01-10T03:32:30;11.66;84.60
74178;DHT22;62540;48.456;-4.456;2023-01-10T03:34:58;11.74;84.24
74178;DHT22;62540;48.456;-4.456;2023-01-10T03:37:45;11.82;84.55
74178;DHT22;62540;48.456;-4.456;2023-01-10T03:43:02;11.91;83.82
74178;DHT22;62540;48.456;-4.456;2023-01-10T03:45:58;11.95;84.39
74178;DHT22;62540;48.456;-4.456;2023-01-10T03:48:33;11.97;85.03
74178;DHT22;62540;48.456;-4.456;2023-01-10T03:51:02;12.01;84.61
74178;DHT22;62540;48.456;-4.456;2023-01-10T03:53:30;12.10;84.32
74178;DHT22;62540;48.456;-4.456;2023-01-10T03:55:56;12.11;85.36
74178;DHT22;62540;48.456;-4.456;2023-01-10T03:58:22;12.13;85.61
74178;DHT22;62540;48.456;-4.456;2023-01-10T04:00:48;12.16;85.82
74178;DHT22;62540;48.456;-4.456;2023-01-10T04:03:13;12.21;86.28
74178;DHT22;62540;48.456;-4.456;2023-01-10T04:05:40;12.30;86.16
74178;DHT22;62540;48.456;-4.456;2023-01-10T04:08:05;12.38;85.94
74178;DHT22;62540;48.456;-4.456;2023-01-10T04:10:31;12.42;86.34
74178;DHT22;62540;48.456;-4.456;2023-01-10T04:13:00;12.49;86.03
74178;DHT22;62540;48.456;-4.456;2023-01-10T04:15:27;12.55;86.14
74178;DHT22;62540;48.456;-4.456;2023-01-10T04:17:52;12.58;86.43
74178;DHT22;62540;48.456;-4.456;2023-01-10T04:20:17;12.62;86.56
74178;DHT22;62540;48.456;-4.456;2023-01-10T04:22:46;12.68;86.47
74178;DHT22;62540;48.456;-4.456;2023-01-10T04:25:14;12.71;86.93
74178;DHT22;62540;48.456;-4.456;2023-01-10T04:27:39;12.79;86.32
74178;DHT22;62540;48.456;-4.456;2023-01-10T04:30:05;12.85;86.25
74178;DHT22;62540;48.456;-4.456;2023-01-10T04:32:31;12.93;85.81
74178;DHT22;62540;48.456;-4.456;2023-01-10T04:34:56;12.97;85.90
74178;DHT22;62540;48.456;-4.456;2023-01-10T04:37:22;13.03;85.51
74178;DHT22;62540;48.456;-4.456;2023-01-10T04:39:47;13.09;85.60
74178;DHT22;62540;48.456;-4.456;2023-01-10T04:42:12;13.09;85.82
74178;DHT22;62540;48.456;-4.456;2023-01-10T04:44:38;13.16;85.35
74178;DHT22;62540;48.456;-4.456;2023-01-10T04:47:03;13.21;85.07
74178;DHT22;62540;48.456;-4.456;2023-01-10T04:49:29;13.21;85.63
74178;DHT22;62540;48.456;-4.456;2023-01-10T04:51:55;13.24;85.38
74178;DHT22;62540;48.456;-4.456;2023-01-10T04:54:21;13.31;85.48
74178;DHT22;62540;48.456;-4.456;2023-01-10T04:56:46;13.33;85.51
74178;DHT22;62540;48.456;-4.456;2023-01-10T04:59:12;13.33;85.65
74178;DHT22;62540;48.456;-4.456;2023-01-10T05:01:37;13.36;85.77
74178;DHT22;62540;48.456;-4.456;2023-01-10T05:04:04;13.37;85.75
74178;DHT22;62540;48.456;-4.456;2023-01-10T05:06:29;13.40;85.24
74178;DHT22;62540;48.456;-4.456;2023-01-10T05:08:55;13.41;85.51
74178;DHT22;62540;48.456;-4.456;2023-01-10T05:11:21;13.46;85.47
74178;DHT22;62540;48.456;-4.456;2023-01-10T05:13:46;13.48;85.35
74178;DHT22;62540;48.456;-4.456;2023-01-10T05:16:12;13.51;85.45
74178;DHT22;62540;48.456;-4.456;2023-01-10T05:18:37;13.55;85.14
74178;DHT22;62540;48.456;-4.456;2023-01-10T05:21:06;13.62;84.64
74178;DHT22;62540;48.456;-4.456;2023-01-10T05:23:32;13.62;84.86
74178;DHT22;62540;48.456;-4.456;2023-01-10T05:26:07;13.64;84.74
74178;DHT22;62540;48.456;-4.456;2023-01-10T05:28:33;13.67;84.91
74178;DHT22;62540;48.456;-4.456;2023-01-10T05:30:58;13.67;85.00
74178;DHT22;62540;48.456;-4.456;2023-01-10T05:33:24;13.65;85.15
74178;DHT22;62540;48.456;-4.456;2023-01-10T05:35:49;13.71;84.79
74178;DHT22;62540;48.456;-4.456;2023-01-10T05:38:15;13.77;84.60
74178;DHT22;62540;48.456;-4.456;2023-01-10T05:40:40;13.74;84.59
74178;DHT22;62540;48.456;-4.456;2023-01-10T05:43:05;13.79;84.62
74178;DHT22;62540;48.456;-4.456;2023-01-10T05:45:31;13.79;84.76
74178;DHT22;62540;48.456;-4.456;2023-01-10T05:47:56;13.82;84.80
74178;DHT22;62540;48.456;-4.456;2023-01-10T05:50:21;13.82;84.90
74178;DHT22;62540;48.456;-4.456;2023-01-10T05:52:47;13.81;84.87
74178;DHT22;62540;48.456;-4.456;2023-01-10T05:55:12;13.82;85.09
74178;DHT22;62540;48.456;-4.456;2023-01-10T05:57:38;13.83;84.91
74178;DHT22;62540;48.456;-4.456;2023-01-10T06:00:04;13.88;84.85
74178;DHT22;62540;48.456;-4.456;2023-01-10T06:02:31;13.86;84.80
74178;DHT22;62540;48.456;-4.456;2023-01-10T06:04:56;13.92;84.54
74178;DHT22;62540;48.456;-4.456;2023-01-10T06:07:22;13.90;85.07
74178;DHT22;62540;48.456;-4.456;2023-01-10T06:09:47;13.92;85.07
74178;DHT22;62540;48.456;-4.456;2023-01-10T06:12:15;13.95;84.88
74178;DHT22;62540;48.456;-4.456;2023-01-10T06:14:42;13.97;84.84
74178;DHT22;62540;48.456;-4.456;2023-01-10T06:17:08;13.94;84.89
74178;DHT22;62540;48.456;-4.456;2023-01-10T06:19:34;13.98;84.88
74178;DHT22;62540;48.456;-4.456;2023-01-10T06:21:59;14.05;84.63
74178;DHT22;62540;48.456;-4.456;2023-01-10T06:24:25;14.01;84.84
74178;DHT22;62540;48.456;-4.456;2023-01-10T06:26:50;14.02;84.81
74178;DHT22;62540;48.456;-4.456;2023-01-10T06:29:15;14.01;84.89
74178;DHT22;62540;48.456;-4.456;2023-01-10T06:31:41;13.99;85.07
74178;DHT22;62540;48.456;-4.456;2023-01-10T06:34:06;14.04;84.92
74178;DHT22;62540;48.456;-4.456;2023-01-10T06:36:32;14.04;84.84
74178;DHT22;62540;48.456;-4.456;2023-01-10T06:38:57;14.08;84.57
74178;DHT22;62540;48.456;-4.456;2023-01-10T06:41:22;14.09;84.56
74178;DHT22;62540;48.456;-4.456;2023-01-10T06:43:48;14.09;84.48
74178;DHT22;62540;48.456;-4.456;2023-01-10T06:46:15;14.09;84.67
74178;DHT22;62540;48.456;-4.456;2023-01-10T06:48:42;14.09;84.74
74178;DHT22;62540;48.456;-4.456;2023-01-10T06:51:09;14.15;84.64
74178;DHT22;62540;48.456;-4.456;2023-01-10T06:53:34;14.16;84.30
74178;DHT22;62540;48.456;-4.456;2023-01-10T06:56:00;14.15;84.62
74178;DHT22;62540;48.456;-4.456;2023-01-10T06:58:25;14.15;84.54
74178;DHT22;62540;48.456;-4.456;2023-01-10T07:00:51;14.20;84.24
74178;DHT22;62540;48.456;-4.456;2023-01-10T07:03:17;14.25;84.06
74178;DHT22;62540;48.456;-4.456;2023-01-10T07:05:42;14.26;84.23
74178;DHT22;62540;48.456;-4.456;2023-01-10T07:08:08;14.25;84.01
74178;DHT22;62540;48.456;-4.456;2023-01-10T07:10:33;14.23;84.28
74178;DHT22;62540;48.456;-4.456;2023-01-10T07:12:59;14.26;84.12
74178;DHT22;62540;48.456;-4.456;2023-01-10T07:15:27;14.22;84.36
74178;DHT22;62540;48.456;-4.456;2023-01-10T07:17:55;14.22;84.33
74178;DHT22;62540;48.456;-4.456;2023-01-10T07:20:21;14.19;84.56
74178;DHT22;62540;48.456;-4.456;2023-01-10T07:22:57;14.25;84.40
74178;DHT22;62540;48.456;-4.456;2023-01-10T07:25:24;14.25;84.33
74178;DHT22;62540;48.456;-4.456;2023-01-10T07:27:49;14.26;84.27
74178;DHT22;62540;48.456;-4.456;2023-01-10T07:30:15;14.27;84.37
74178;DHT22;62540;48.456;-4.456;2023-01-10T07:32:40;14.26;84.41
74178;DHT22;62540;48.456;-4.456;2023-01-10T07:35:06;14.27;84.30
74178;DHT22;62540;48.456;-4.456;2023-01-10T07:37:32;14.27;84.33
74178;DHT22;62540;48.456;-4.456;2023-01-10T07:39:57;14.26;84.51
74178;DHT22;62540;48.456;-4.456;2023-01-10T07:42:23;14.26;84.37
74178;DHT22;62540;48.456;-4.456;2023-01-10T07:44:48;14.30;84.29
74178;DHT22;62540;48.456;-4.456;2023-01-10T07:47:14;14.30;84.37
74178;DHT22;62540;48.456;-4.456;2023-01-10T07:49:39;14.32;84.28
74178;DHT22;62540;48.456;-4.456;2023-01-10T07:52:05;14.27;84.42
74178;DHT22;62540;48.456;-4.456;2023-01-10T07:54:33;14.26;84.46
74178;DHT22;62540;48.456;-4.456;2023-01-10T07:56:59;14.25;84.46
74178;DHT22;62540;48.456;-4.456;2023-01-10T07:59:24;14.30;84.36
74178;DHT22;62540;48.456;-4.456;2023-01-10T08:01:50;14.32;84.23
74178;DHT22;62540;48.456;-4.456;2023-01-10T08:04:15;14.27;84.21
74178;DHT22;62540;48.456;-4.456;2023-01-10T08:06:40;14.30;84.24
74178;DHT22;62540;48.456;-4.456;2023-01-10T08:09:06;14.33;84.18
74178;DHT22;62540;48.456;-4.456;2023-01-10T08:11:31;14.33;83.89
74178;DHT22;62540;48.456;-4.456;2023-01-10T08:13:57;14.33;83.94
74178;DHT22;62540;48.456;-4.456;2023-01-10T08:16:22;14.29;84.20
74178;DHT22;62540;48.456;-4.456;2023-01-10T08:18:47;14.34;83.86
74178;DHT22;62540;48.456;-4.456;2023-01-10T08:21:13;14.37;83.93
74178;DHT22;62540;48.456;-4.456;2023-01-10T08:23:38;14.33;84.12
74178;DHT22;62540;48.456;-4.456;2023-01-10T08:26:04;14.33;84.08
74178;DHT22;62540;48.456;-4.456;2023-01-10T08:28:30;14.39;83.87
74178;DHT22;62540;48.456;-4.456;2023-01-10T08:30:55;14.37;83.71
74178;DHT22;62540;48.456;-4.456;2023-01-10T08:33:22;14.33;83.85
74178;DHT22;62540;48.456;-4.456;2023-01-10T08:35:48;14.32;83.92
74178;DHT22;62540;48.456;-4.456;2023-01-10T08:38:13;14.37;83.72
74178;DHT22;62540;48.456;-4.456;2023-01-10T08:40:38;14.39;83.62
74178;DHT22;62540;48.456;-4.456;2023-01-10T08:43:09;14.43;83.54
74178;DHT22;62540;48.456;-4.456;2023-01-10T08:45:36;14.44;83.59
74178;DHT22;62540;48.456;-4.456;2023-01-10T08:48:03;14.44;83.42
74178;DHT22;62540;48.456;-4.456;2023-01-10T08:50:29;14.51;83.38
74178;DHT22;62540;48.456;-4.456;2023-01-10T08:52:59;14.46;83.43
74178;DHT22;62540;48.456;-4.456;2023-01-10T08:55:24;14.50;83.55
74178;DHT22;62540;48.456;-4.456;2023-01-10T08:57:50;14.50;83.51
74178;DHT22;62540;48.456;-4.456;2023-01-10T09:00:16;14.48;83.50
74178;DHT22;62540;48.456;-4.456;2023-01-10T09:02:41;14.47;83.48
74178;DHT22;62540;48.456;-4.456;2023-01-10T09:05:07;14.50;83.43
74178;DHT22;62540;48.456;-4.456;2023-01-10T09:07:33;14.51;83.38
74178;DHT22;62540;48.456;-4.456;2023-01-10T09:09:58;14.54;83.18
74178;DHT22;62540;48.456;-4.456;2023-01-10T09:12:24;14.51;83.22
74178;DHT22;62540;48.456;-4.456;2023-01-10T09:15:08;14.47;83.33
74178;DHT22;62540;48.456;-4.456;2023-01-10T09:17:33;14.50;83.39
74178;DHT22;62540;48.456;-4.456;2023-01-10T09:19:59;14.50;83.34
74178;DHT22;62540;48.456;-4.456;2023-01-10T09:22:24;14.47;83.23
74178;DHT22;62540;48.456;-4.456;2023-01-10T09:24:50;14.50;83.33
74178;DHT22;62540;48.456;-4.456;2023-01-10T09:27:15;14.53;83.24
74178;DHT22;62540;48.456;-4.456;2023-01-10T09:29:40;14.54;83.14
74178;DHT22;62540;48.456;-4.456;2023-01-10T09:32:06;14.56;83.00
74178;DHT22;62540;48.456;-4.456;2023-01-10T09:34:32;14.56;82.84
74178;DHT22;62540;48.456;-4.456;2023-01-10T09:36:57;14.59;82.84
74178;DHT22;62540;48.456;-4.456;2023-01-10T09:39:23;14.60;82.71
74178;DHT22;62540;48.456;-4.456;2023-01-10T09:47:43;14.61;82.36
74178;DHT22;62540;48.456;-4.456;2023-01-10T09:52:48;14.59;82.42
74178;DHT22;62540;48.456;-4.456;2023-01-10T09:57:46;14.56;82.51
74178;DHT22;62540;48.456;-4.456;2023-01-10T10:00:18;14.61;82.44
74178;DHT22;62540;48.456;-4.456;2023-01-10T10:02:48;14.60;82.31
74178;DHT22;62540;48.456;-4.456;2023-01-10T10:05:18;14.57;82.21
74178;DHT22;62540;48.456;-4.456;2023-01-10T10:07:45;14.59;82.06
74178;DHT22;62540;48.456;-4.456;2023-01-10T10:10:21;14.61;82.07
74178;DHT22;62540;48.456;-4.456;2023-01-10T10:15:41;14.63;81.98
74178;DHT22;62540;48.456;-4.456;2023-01-10T10:21:02;14.63;81.95
74178;DHT22;62540;48.456;-4.456;2023-01-10T10:29:49;14.64;81.96
74178;DHT22;62540;48.456;-4.456;2023-01-10T10:35:01;14.70;81.75
74178;DHT22;62540;48.456;-4.456;2023-01-10T10:37:40;14.67;81.65
74178;DHT22;62540;48.456;-4.456;2023-01-10T10:40:17;14.71;81.61
74178;DHT22;62540;48.456;-4.456;2023-01-10T10:42:47;14.66;81.38
74178;DHT22;62540;48.456;-4.456;2023-01-10T10:45:18;14.68;81.43
74178;DHT22;62540;48.456;-4.456;2023-01-10T10:47:50;14.67;81.28
74178;DHT22;62540;48.456;-4.456;2023-01-10T10:52:51;14.68;81.38
74178;DHT22;62540;48.456;-4.456;2023-01-10T10:55:27;14.73;81.36
74178;DHT22;62540;48.456;-4.456;2023-01-10T10:57:53;14.70;81.44
74178;DHT22;62540;48.456;-4.456;2023-01-10T11:00:21;14.74;81.44
74178;DHT22;62540;48.456;-4.456;2023-01-10T11:03:03;14.74;81.31
74178;DHT22;62540;48.456;-4.456;2023-01-10T11:05:39;14.75;81.26
74178;DHT22;62540;48.456;-4.456;2023-01-10T11:08:08;14.74;81.26
74178;DHT22;62540;48.456;-4.456;2023-01-10T11:10:36;14.78;81.30
74178;DHT22;62540;48.456;-4.456;2023-01-10T11:15:44;14.77;81.23
74178;DHT22;62540;48.456;-4.456;2023-01-10T11:18:21;14.83;81.15
74178;DHT22;62540;48.456;-4.456;2023-01-10T11:21:13;14.84;81.18
74178;DHT22;62540;48.456;-4.456;2023-01-10T11:23:40;14.87;81.18
74178;DHT22;62540;48.456;-4.456;2023-01-10T11:26:24;14.88;81.10
74178;DHT22;62540;48.456;-4.456;2023-01-10T11:29:06;14.85;81.16
74178;DHT22;62540;48.456;-4.456;2023-01-10T11:31:33;14.92;81.16
74178;DHT22;62540;48.456;-4.456;2023-01-10T11:34:02;14.89;80.99
74178;DHT22;62540;48.456;-4.456;2023-01-10T11:36:57;14.88;80.95
74178;DHT22;62540;48.456;-4.456;2023-01-10T11:39:24;14.92;80.93
74178;DHT22;62540;48.456;-4.456;2023-01-10T11:41:49;14.98;80.85
74178;DHT22;62540;48.456;-4.456;2023-01-10T11:44:28;14.97;80.81
74178;DHT22;62540;48.456;-4.456;2023-01-10T11:47:09;14.95;80.81
74178;DHT22;62540;48.456;-4.456;2023-01-10T11:49:39;14.97;80.95
74178;DHT22;62540;48.456;-4.456;2023-01-10T11:52:26;14.89;80.89
74178;DHT22;62540;48.456;-4.456;2023-01-10T11:54:55;14.95;80.87
74178;DHT22;62540;48.456;-4.456;2023-01-10T11:57:27;14.88;81.17
74178;DHT22;62540;48.456;-4.456;2023-01-10T12:00:03;14.94;81.13
74178;DHT22;62540;48.456;-4.456;2023-01-10T12:02:33;14.94;81.00
74178;DHT22;62540;48.456;-4.456;2023-01-10T12:05:02;14.94;80.98
74178;DHT22;62540;48.456;-4.456;2023-01-10T12:07:28;14.94;80.94
74178;DHT22;62540;48.456;-4.456;2023-01-10T12:10:01;14.95;81.06
74178;DHT22;62540;48.456;-4.456;2023-01-10T12:12:30;14.98;80.97
74178;DHT22;62540;48.456;-4.456;2023-01-10T12:14:58;15.06;80.79
74178;DHT22;62540;48.456;-4.456;2023-01-10T12:17:33;15.09;80.69
74178;DHT22;62540;48.456;-4.456;2023-01-10T12:20:00;15.09;80.53
74178;DHT22;62540;48.456;-4.456;2023-01-10T12:22:39;15.12;80.56
74178;DHT22;62540;48.456;-4.456;2023-01-10T12:25:19;15.08;80.78
74178;DHT22;62540;48.456;-4.456;2023-01-10T12:27:45;15.12;80.85
74178;DHT22;62540;48.456;-4.456;2023-01-10T12:30:35;15.12;80.89
74178;DHT22;62540;48.456;-4.456;2023-01-10T12:33:06;15.15;80.74
74178;DHT22;62540;48.456;-4.456;2023-01-10T12:35:42;15.09;80.58
74178;DHT22;62540;48.456;-4.456;2023-01-10T12:38:32;15.15;80.70
74178;DHT22;62540;48.456;-4.456;2023-01-10T12:44:34;15.02;81.35
74178;DHT22;62540;48.456;-4.456;2023-01-10T12:50:22;14.98;81.28
74178;DHT22;62540;48.456;-4.456;2023-01-10T12:52:52;14.99;81.21
74178;DHT22;62540;48.456;-4.456;2023-01-10T12:55:22;15.06;81.23
74178;DHT22;62540;48.456;-4.456;2023-01-10T12:58:01;15.01;81.49
74178;DHT22;62540;48.456;-4.456;2023-01-10T13:00:29;15.02;81.72
74178;DHT22;62540;48.456;-4.456;2023-01-10T13:02:58;15.01;81.75
74178;DHT22;62540;48.456;-4.456;2023-01-10T13:05:26;14.98;81.60
74178;DHT22;62540;48.456;-4.456;2023-01-10T13:08:03;15.02;81.87
74178;DHT22;62540;48.456;-4.456;2023-01-10T13:10:32;14.98;81.84
74178;DHT22;62540;48.456;-4.456;2023-01-10T13:13:15;14.99;81.93
74178;DHT22;62540;48.456;-4.456;2023-01-10T13:16:34;14.99;81.85
74178;DHT22;62540;48.456;-4.456;2023-01-10T13:18:37;14.92;82.05
74178;DHT22;62540;48.456;-4.456;2023-01-10T13:21:09;14.95;81.96
74178;DHT22;62540;48.456;-4.456;2023-01-10T13:23:48;15.02;81.61
74178;DHT22;62540;48.456;-4.456;2023-01-10T13:26:15;14.98;81.63
74178;DHT22;62540;48.456;-4.456;2023-01-10T13:28:56;14.99;81.74
74178;DHT22;62540;48.456;-4.456;2023-01-10T13:31:31;15.01;81.55
74178;DHT22;62540;48.456;-4.456;2023-01-10T13:34:00;15.06;81.39
74178;DHT22;62540;48.456;-4.456;2023-01-10T13:36:33;15.05;81.15
74178;DHT22;62540;48.456;-4.456;2023-01-10T13:39:02;15.08;80.95
74178;DHT22;62540;48.456;-4.456;2023-01-10T14:01:26;15.04;80.11
74178;DHT22;62540;48.456;-4.456;2023-01-10T14:04:26;14.92;80.30
74178;DHT22;62540;48.456;-4.456;2023-01-10T14:06:58;14.91;80.33
74178;DHT22;62540;48.456;-4.456;2023-01-10T14:11:57;14.94;80.23
74178;DHT22;62540;48.456;-4.456;2023-01-10T14:16:55;14.91;80.16
74178;DHT22;62540;48.456;-4.456;2023-01-10T14:21:51;14.92;80.19
74178;DHT22;62540;48.456;-4.456;2023-01-10T14:24:27;14.92;79.89
74178;DHT22;62540;48.456;-4.456;2023-01-10T14:26:56;14.91;79.84
74178;DHT22;62540;48.456;-4.456;2023-01-10T14:29:24;14.92;79.76
74178;DHT22;62540;48.456;-4.456;2023-01-10T14:31:52;14.88;79.63
74178;DHT22;62540;48.456;-4.456;2023-01-10T14:34:26;14.91;79.64
74178;DHT22;62540;48.456;-4.456;2023-01-10T14:37:22;14.94;79.53
74178;DHT22;62540;48.456;-4.456;2023-01-10T14:39:49;14.95;79.53
74178;DHT22;62540;48.456;-4.456;2023-01-10T14:42:17;15.01;79.21
74178;DHT22;62540;48.456;-4.456;2023-01-10T14:47:46;14.99;79.22
74178;DHT22;62540;48.456;-4.456;2023-01-10T14:50:24;14.97;79.09
74178;DHT22;62540;48.456;-4.456;2023-01-10T14:52:51;15.01;79.12
74178;DHT22;62540;48.456;-4.456;2023-01-10T14:55:17;14.94;78.86
74178;DHT22;62540;48.456;-4.456;2023-01-10T14:58:00;14.94;78.80
74178;DHT22;62540;48.456;-4.456;2023-01-10T15:00:31;15.01;78.82
74178;DHT22;62540;48.456;-4.456;2023-01-10T15:02:59;14.99;78.55
74178;DHT22;62540;48.456;-4.456;2023-01-10T15:05:32;15.01;78.36
74178;DHT22;62540;48.456;-4.456;2023-01-10T15:08:23;14.94;78.61
74178;DHT22;62540;48.456;-4.456;2023-01-10T15:10:55;14.95;78.40
74178;DHT22;62540;48.456;-4.456;2023-01-10T15:13:25;14.95;78.39
74178;DHT22;62540;48.456;-4.456;2023-01-10T15:15:53;14.91;78.37
74178;DHT22;62540;48.456;-4.456;2023-01-10T15:18:39;14.88;78.45
74178;DHT22;62540;48.456;-4.456;2023-01-10T15:21:05;14.85;78.37
74178;DHT22;62540;48.456;-4.456;2023-01-10T15:23:36;14.88;78.51
74178;DHT22;62540;48.456;-4.456;2023-01-10T15:26:06;14.87;78.70
74178;DHT22;62540;48.456;-4.456;2023-01-10T15:28:34;14.85;78.70
74178;DHT22;62540;48.456;-4.456;2023-01-10T15:31:02;14.83;78.60
74178;DHT22;62540;48.456;-4.456;2023-01-10T15:33:30;14.80;78.85
74178;DHT22;62540;48.456;-4.456;2023-01-10T15:36:11;14.80;78.90
74178;DHT22;62540;48.456;-4.456;2023-01-10T15:38:43;14.78;78.94
74178;DHT22;62540;48.456;-4.456;2023-01-10T15:41:09;14.81;79.15
74178;DHT22;62540;48.456;-4.456;2023-01-10T15:43:40;14.83;78.98
74178;DHT22;62540;48.456;-4.456;2023-01-10T15:46:16;14.80;79.08
74178;DHT22;62540;48.456;-4.456;2023-01-10T15:48:55;14.73;79.38
74178;DHT22;62540;48.456;-4.456;2023-01-10T15:51:36;14.78;79.35
74178;DHT22;62540;48.456;-4.456;2023-01-10T15:56:40;14.75;79.22
74178;DHT22;62540;48.456;-4.456;2023-01-10T15:59:27;14.74;79.38
74178;DHT22;62540;48.456;-4.456;2023-01-10T16:04:33;14.77;79.36
74178;DHT22;62540;48.456;-4.456;2023-01-10T16:07:16;14.74;79.37
74178;DHT22;62540;48.456;-4.456;2023-01-10T16:09:51;14.78;79.37
74178;DHT22;62540;48.456;-4.456;2023-01-10T16:12:26;14.74;79.53
74178;DHT22;62540;48.456;-4.456;2023-01-10T16:15:15;14.64;79.82
74178;DHT22;62540;48.456;-4.456;2023-01-10T16:17:41;14.70;79.85
74178;DHT22;62540;48.456;-4.456;2023-01-10T16:20:12;14.68;79.79
74178;DHT22;62540;48.456;-4.456;2023-01-10T16:22:37;14.71;80.13
74178;DHT22;62540;48.456;-4.456;2023-01-10T16:25:04;14.73;80.29
74178;DHT22;62540;48.456;-4.456;2023-01-10T16:27:29;14.66;80.58
74178;DHT22;62540;48.456;-4.456;2023-01-10T16:29:55;14.66;80.84
74178;DHT22;62540;48.456;-4.456;2023-01-10T16:32:20;14.61;81.26
74178;DHT22;62540;48.456;-4.456;2023-01-10T16:34:46;14.59;81.49
74178;DHT22;62540;48.456;-4.456;2023-01-10T16:37:12;14.56;82.14
74178;DHT22;62540;48.456;-4.456;2023-01-10T16:39:38;14.47;82.54
74178;DHT22;62540;48.456;-4.456;2023-01-10T16:42:03;14.44;82.70
74178;DHT22;62540;48.456;-4.456;2023-01-10T16:44:47;14.47;82.74
74178;DHT22;62540;48.456;-4.456;2023-01-10T16:47:12;14.43;83.02
74178;DHT22;62540;48.456;-4.456;2023-01-10T16:49:38;14.48;82.81
74178;DHT22;62540;48.456;-4.456;2023-01-10T16:52:05;14.46;82.97
74178;DHT22;62540;48.456;-4.456;2023-01-10T16:54:31;14.50;83.07
74178;DHT22;62540;48.456;-4.456;2023-01-10T16:56:59;14.46;83.40
74178;DHT22;62540;48.456;-4.456;2023-01-10T16:59:24;14.48;83.28
74178;DHT22;62540;48.456;-4.456;2023-01-10T17:01:52;14.50;83.32
74178;DHT22;62540;48.456;-4.456;2023-01-10T17:04:22;14.46;83.64
74178;DHT22;62540;48.456;-4.456;2023-01-10T17:06:48;14.48;83.73
74178;DHT22;62540;48.456;-4.456;2023-01-10T17:09:22;14.43;83.84
74178;DHT22;62540;48.456;-4.456;2023-01-10T17:11:55;14.44;83.85
74178;DHT22;62540;48.456;-4.456;2023-01-10T17:14:27;14.48;83.61
74178;DHT22;62540;48.456;-4.456;2023-01-10T17:16:53;14.50;83.26
74178;DHT22;62540;48.456;-4.456;2023-01-10T17:19:19;14.50;83.48
74178;DHT22;62540;48.456;-4.456;2023-01-10T17:21:44;14.41;83.44
74178;DHT22;62540;48.456;-4.456;2023-01-10T17:24:10;14.44;83.56
74178;DHT22;62540;48.456;-4.456;2023-01-10T17:26:36;14.44;83.35